Onward, Mississippi
Current Conditions -  °F | °C
As of 9:53 AM on Saturday 20 Dec 2014 (Local Time) from KTVR Reporting Station
Haze Haze  
Wind Chill: 44°   Ceiling: Unl
Heat Index: 47°   Visibility: 6mi
Dew Point: 42°   Wind: 7mph
Humidity: 83%   Direction: 40°NE
Pressure: 30.26"   Gusts: NA
Location:  32.8112°N, 90.8327°W
Report Text: KTVR 201553Z AUTO 04006KT 6SM HZ SCT011 08/06 A3026 RMK AO2 SLP253 T00830056
Loading
Personal Weather Stations






























Interactive Weather Map New forecast layout! Learn more

10-Day Weather Forecast

Advertisements
Track Severe Weather on mobile